sensor_id;sensor_type;location;lat;lon;timestamp;P1;durP1;ratioP1;P2;durP2;ratioP2
17197;SDS011;8715;51.010;6.812;2023-03-23T00:00:04;857.03;;;807.80;;
17197;SDS011;8715;51.010;6.812;2023-03-23T00:02:30;846.60;;;798.10;;
17197;SDS011;8715;51.010;6.812;2023-03-23T00:05:00;849.65;;;801.13;;
17197;SDS011;8715;51.010;6.812;2023-03-23T00:07:25;857.85;;;806.88;;
17197;SDS011;8715;51.010;6.812;2023-03-23T00:09:53;857.28;;;807.55;;
17197;SDS011;8715;51.010;6.812;2023-03-23T00:12:19;848.35;;;799.63;;
17197;SDS011;8715;51.010;6.812;2023-03-23T00:14:45;847.13;;;798.20;;
17197;SDS011;8715;51.010;6.812;2023-03-23T00:17:10;853.27;;;803.60;;
17197;SDS011;8715;51.010;6.812;2023-03-23T00:19:36;844.88;;;796.53;;
17197;SDS011;8715;51.010;6.812;2023-03-23T00:22:10;847.10;;;798.83;;
17197;SDS011;8715;51.010;6.812;2023-03-23T00:24:36;855.80;;;806.17;;
17197;SDS011;8715;51.010;6.812;2023-03-23T00:27:01;846.30;;;797.63;;
17197;SDS011;8715;51.010;6.812;2023-03-23T00:29:28;853.03;;;803.80;;
17197;SDS011;8715;51.010;6.812;2023-03-23T00:31:53;847.67;;;799.03;;
17197;SDS011;8715;51.010;6.812;2023-03-23T00:34:20;844.83;;;796.40;;
17197;SDS011;8715;51.010;6.812;2023-03-23T00:36:46;854.50;;;805.45;;
17197;SDS011;8715;51.010;6.812;2023-03-23T00:39:11;850.70;;;802.05;;
17197;SDS011;8715;51.010;6.812;2023-03-23T00:41:37;857.53;;;807.13;;
17197;SDS011;8715;51.010;6.812;2023-03-23T00:44:04;856.45;;;806.78;;
17197;SDS011;8715;51.010;6.812;2023-03-23T00:46:29;856.45;;;807.03;;
17197;SDS011;8715;51.010;6.812;2023-03-23T00:48:55;854.72;;;804.80;;
17197;SDS011;8715;51.010;6.812;2023-03-23T00:51:21;852.95;;;803.95;;
17197;SDS011;8715;51.010;6.812;2023-03-23T00:53:47;854.55;;;805.53;;
17197;SDS011;8715;51.010;6.812;2023-03-23T00:56:12;861.27;;;811.17;;
17197;SDS011;8715;51.010;6.812;2023-03-23T00:58:38;852.20;;;802.70;;
17197;SDS011;8715;51.010;6.812;2023-03-23T01:01:03;855.33;;;805.97;;
17197;SDS011;8715;51.010;6.812;2023-03-23T01:03:29;845.85;;;797.63;;
17197;SDS011;8715;51.010;6.812;2023-03-23T01:05:54;848.17;;;799.77;;
17197;SDS011;8715;51.010;6.812;2023-03-23T01:08:20;848.72;;;800.25;;
17197;SDS011;8715;51.010;6.812;2023-03-23T01:10:46;849.65;;;800.85;;
17197;SDS011;8715;51.010;6.812;2023-03-23T01:13:12;853.53;;;804.35;;
17197;SDS011;8715;51.010;6.812;2023-03-23T01:15:37;855.35;;;805.75;;
17197;SDS011;8715;51.010;6.812;2023-03-23T01:18:03;857.95;;;808.55;;
17197;SDS011;8715;51.010;6.812;2023-03-23T01:20:28;856.78;;;806.97;;
17197;SDS011;8715;51.010;6.812;2023-03-23T01:22:56;842.47;;;794.80;;
17197;SDS011;8715;51.010;6.812;2023-03-23T01:25:25;850.20;;;801.55;;
17197;SDS011;8715;51.010;6.812;2023-03-23T01:27:50;849.42;;;800.72;;
17197;SDS011;8715;51.010;6.812;2023-03-23T01:30:16;848.77;;;800.33;;
17197;SDS011;8715;51.010;6.812;2023-03-23T01:32:41;843.67;;;795.27;;
17197;SDS011;8715;51.010;6.812;2023-03-23T01:35:06;854.50;;;804.80;;
17197;SDS011;8715;51.010;6.812;2023-03-23T01:37:31;853.42;;;803.38;;
17197;SDS011;8715;51.010;6.812;2023-03-23T01:39:57;853.85;;;804.38;;
17197;SDS011;8715;51.010;6.812;2023-03-23T01:42:29;845.80;;;797.53;;
17197;SDS011;8715;51.010;6.812;2023-03-23T01:47:20;854.10;;;804.17;;
17197;SDS011;8715;51.010;6.812;2023-03-23T01:49:48;858.72;;;808.85;;
17197;SDS011;8715;51.010;6.812;2023-03-23T01:52:15;852.13;;;803.40;;
17197;SDS011;8715;51.010;6.812;2023-03-23T01:54:42;858.72;;;809.03;;
17197;SDS011;8715;51.010;6.812;2023-03-23T01:57:10;851.17;;;802.58;;
17197;SDS011;8715;51.010;6.812;2023-03-23T01:59:38;845.70;;;797.83;;
17197;SDS011;8715;51.010;6.812;2023-03-23T02:02:03;856.33;;;807.08;;
17197;SDS011;8715;51.010;6.812;2023-03-23T02:04:29;854.92;;;806.28;;
17197;SDS011;8715;51.010;6.812;2023-03-23T02:06:55;847.97;;;799.90;;
17197;SDS011;8715;51.010;6.812;2023-03-23T02:09:22;851.30;;;803.50;;
17197;SDS011;8715;51.010;6.812;2023-03-23T02:11:48;851.50;;;802.83;;
17197;SDS011;8715;51.010;6.812;2023-03-23T02:14:15;848.55;;;800.10;;
17197;SDS011;8715;51.010;6.812;2023-03-23T02:19:33;847.38;;;799.90;;
17197;SDS011;8715;51.010;6.812;2023-03-23T02:28:04;850.28;;;801.72;;
17197;SDS011;8715;51.010;6.812;2023-03-23T02:35:06;850.53;;;802.20;;
17197;SDS011;8715;51.010;6.812;2023-03-23T02:37:50;846.22;;;797.97;;
17197;SDS011;8715;51.010;6.812;2023-03-23T02:40:26;843.17;;;795.53;;
17197;SDS011;8715;51.010;6.812;2023-03-23T02:42:53;844.13;;;796.70;;
17197;SDS011;8715;51.010;6.812;2023-03-23T02:45:20;840.67;;;793.97;;
17197;SDS011;8715;51.010;6.812;2023-03-23T02:47:46;853.28;;;804.92;;
17197;SDS011;8715;51.010;6.812;2023-03-23T02:50:13;841.90;;;794.88;;
17197;SDS011;8715;51.010;6.812;2023-03-23T02:52:39;847.90;;;800.42;;
17197;SDS011;8715;51.010;6.812;2023-03-23T02:55:06;845.50;;;797.03;;
17197;SDS011;8715;51.010;6.812;2023-03-23T02:57:32;843.85;;;795.63;;
17197;SDS011;8715;51.010;6.812;2023-03-23T02:59:57;841.73;;;794.60;;
17197;SDS011;8715;51.010;6.812;2023-03-23T03:02:29;845.90;;;797.53;;
17197;SDS011;8715;51.010;6.812;2023-03-23T03:10:19;850.00;;;801.80;;
17197;SDS011;8715;51.010;6.812;2023-03-23T03:20:25;849.72;;;801.83;;
17197;SDS011;8715;51.010;6.812;2023-03-23T03:22:51;840.42;;;793.60;;
17197;SDS011;8715;51.010;6.812;2023-03-23T03:25:17;836.90;;;790.05;;
17197;SDS011;8715;51.010;6.812;2023-03-23T03:27:44;843.38;;;796.10;;
17197;SDS011;8715;51.010;6.812;2023-03-23T03:30:11;849.80;;;801.95;;
17197;SDS011;8715;51.010;6.812;2023-03-23T03:32:41;853.78;;;805.15;;
17197;SDS011;8715;51.010;6.812;2023-03-23T03:35:08;845.65;;;797.88;;
17197;SDS011;8715;51.010;6.812;2023-03-23T03:37:37;844.13;;;796.17;;
17197;SDS011;8715;51.010;6.812;2023-03-23T03:40:06;846.05;;;799.00;;
17197;SDS011;8715;51.010;6.812;2023-03-23T03:42:36;842.90;;;795.63;;
17197;SDS011;8715;51.010;6.812;2023-03-23T03:45:01;845.35;;;797.80;;
17197;SDS011;8715;51.010;6.812;2023-03-23T03:47:26;845.57;;;797.33;;
17197;SDS011;8715;51.010;6.812;2023-03-23T03:49:51;839.97;;;793.33;;
17197;SDS011;8715;51.010;6.812;2023-03-23T03:52:16;844.10;;;796.77;;
17197;SDS011;8715;51.010;6.812;2023-03-23T03:54:42;840.03;;;792.83;;
17197;SDS011;8715;51.010;6.812;2023-03-23T03:57:07;840.10;;;792.83;;
17197;SDS011;8715;51.010;6.812;2023-03-23T03:59:33;833.50;;;787.60;;
17197;SDS011;8715;51.010;6.812;2023-03-23T04:01:59;845.65;;;798.45;;
17197;SDS011;8715;51.010;6.812;2023-03-23T04:04:24;839.83;;;793.10;;
17197;SDS011;8715;51.010;6.812;2023-03-23T04:06:49;843.23;;;796.23;;
17197;SDS011;8715;51.010;6.812;2023-03-23T04:09:15;841.17;;;794.37;;
17197;SDS011;8715;51.010;6.812;2023-03-23T04:11:40;838.17;;;791.67;;
17197;SDS011;8715;51.010;6.812;2023-03-23T04:14:05;834.53;;;788.10;;
17197;SDS011;8715;51.010;6.812;2023-03-23T04:16:31;843.30;;;796.35;;
17197;SDS011;8715;51.010;6.812;2023-03-23T04:18:59;840.15;;;793.70;;
17197;SDS011;8715;51.010;6.812;2023-03-23T04:21:25;849.97;;;802.25;;
17197;SDS011;8715;51.010;6.812;2023-03-23T04:23:53;849.17;;;801.80;;
17197;SDS011;8715;51.010;6.812;2023-03-23T04:26:18;840.13;;;793.70;;
17197;SDS011;8715;51.010;6.812;2023-03-23T04:28:43;844.80;;;797.23;;
17197;SDS011;8715;51.010;6.812;2023-03-23T04:31:09;842.30;;;795.23;;
17197;SDS011;8715;51.010;6.812;2023-03-23T04:33:37;844.13;;;796.75;;
17197;SDS011;8715;51.010;6.812;2023-03-23T04:36:02;847.07;;;799.20;;
17197;SDS011;8715;51.010;6.812;2023-03-23T04:38:28;845.28;;;798.00;;
17197;SDS011;8715;51.010;6.812;2023-03-23T04:40:55;846.97;;;799.33;;
17197;SDS011;8715;51.010;6.812;2023-03-23T04:43:21;850.20;;;802.13;;
17197;SDS011;8715;51.010;6.812;2023-03-23T04:45:52;852.35;;;804.08;;
17197;SDS011;8715;51.010;6.812;2023-03-23T04:48:20;844.30;;;797.03;;
17197;SDS011;8715;51.010;6.812;2023-03-23T04:50:47;844.25;;;796.97;;
17197;SDS011;8715;51.010;6.812;2023-03-23T04:53:13;845.97;;;798.13;;
17197;SDS011;8715;51.010;6.812;2023-03-23T04:55:38;840.90;;;793.25;;
17197;SDS011;8715;51.010;6.812;2023-03-23T04:58:04;837.97;;;791.47;;
17197;SDS011;8715;51.010;6.812;2023-03-23T05:00:30;848.33;;;800.63;;
17197;SDS011;8715;51.010;6.812;2023-03-23T05:02:55;848.83;;;800.47;;
17197;SDS011;8715;51.010;6.812;2023-03-23T05:05:21;849.50;;;801.97;;
17197;SDS011;8715;51.010;6.812;2023-03-23T05:07:47;847.67;;;799.85;;
17197;SDS011;8715;51.010;6.812;2023-03-23T05:10:12;846.90;;;799.72;;
17197;SDS011;8715;51.010;6.812;2023-03-23T05:12:38;842.38;;;795.00;;
17197;SDS011;8715;51.010;6.812;2023-03-23T05:15:04;845.78;;;798.10;;
17197;SDS011;8715;51.010;6.812;2023-03-23T05:17:29;845.67;;;796.88;;
17197;SDS011;8715;51.010;6.812;2023-03-23T05:19:55;848.65;;;800.65;;
17197;SDS011;8715;51.010;6.812;2023-03-23T05:22:21;850.75;;;802.33;;
17197;SDS011;8715;51.010;6.812;2023-03-23T05:24:47;850.53;;;802.38;;
17197;SDS011;8715;51.010;6.812;2023-03-23T05:27:13;841.03;;;793.73;;
17197;SDS011;8715;51.010;6.812;2023-03-23T05:29:39;845.58;;;797.58;;
17197;SDS011;8715;51.010;6.812;2023-03-23T05:32:06;852.80;;;804.30;;
17197;SDS011;8715;51.010;6.812;2023-03-23T05:34:32;846.80;;;799.13;;
17197;SDS011;8715;51.010;6.812;2023-03-23T05:36:59;848.13;;;800.10;;
17197;SDS011;8715;51.010;6.812;2023-03-23T05:39:25;844.60;;;796.70;;
17197;SDS011;8715;51.010;6.812;2023-03-23T05:41:51;848.72;;;800.80;;
17197;SDS011;8715;51.010;6.812;2023-03-23T05:44:16;845.67;;;798.23;;
17197;SDS011;8715;51.010;6.812;2023-03-23T05:46:41;842.33;;;795.37;;
17197;SDS011;8715;51.010;6.812;2023-03-23T05:49:08;843.60;;;796.17;;
17197;SDS011;8715;51.010;6.812;2023-03-23T05:51:33;848.95;;;800.90;;
17197;SDS011;8715;51.010;6.812;2023-03-23T05:53:59;846.67;;;798.47;;
17197;SDS011;8715;51.010;6.812;2023-03-23T05:56:25;847.58;;;799.85;;
17197;SDS011;8715;51.010;6.812;2023-03-23T05:58:50;840.70;;;794.07;;
17197;SDS011;8715;51.010;6.812;2023-03-23T06:01:15;849.47;;;801.47;;
17197;SDS011;8715;51.010;6.812;2023-03-23T06:03:41;844.40;;;796.78;;
17197;SDS011;8715;51.010;6.812;2023-03-23T06:06:08;845.25;;;797.15;;
17197;SDS011;8715;51.010;6.812;2023-03-23T06:08:34;843.05;;;795.42;;
17197;SDS011;8715;51.010;6.812;2023-03-23T06:11:01;859.53;;;810.03;;
17197;SDS011;8715;51.010;6.812;2023-03-23T06:13:27;853.53;;;805.07;;
17197;SDS011;8715;51.010;6.812;2023-03-23T06:15:54;853.78;;;805.15;;
17197;SDS011;8715;51.010;6.812;2023-03-23T06:18:22;844.20;;;796.42;;
17197;SDS011;8715;51.010;6.812;2023-03-23T06:20:48;846.97;;;798.38;;
17197;SDS011;8715;51.010;6.812;2023-03-23T06:23:13;845.27;;;796.60;;
17197;SDS011;8715;51.010;6.812;2023-03-23T06:25:39;843.10;;;795.47;;
17197;SDS011;8715;51.010;6.812;2023-03-23T06:28:04;850.30;;;801.45;;
17197;SDS011;8715;51.010;6.812;2023-03-23T06:30:29;851.43;;;802.70;;
17197;SDS011;8715;51.010;6.812;2023-03-23T06:32:55;851.53;;;802.60;;
17197;SDS011;8715;51.010;6.812;2023-03-23T06:35:20;851.08;;;801.65;;
17197;SDS011;8715;51.010;6.812;2023-03-23T06:37:46;859.78;;;809.70;;
17197;SDS011;8715;51.010;6.812;2023-03-23T06:40:12;849.03;;;800.65;;
17197;SDS011;8715;51.010;6.812;2023-03-23T06:42:37;859.92;;;810.35;;
17197;SDS011;8715;51.010;6.812;2023-03-23T06:45:03;853.73;;;804.20;;
17197;SDS011;8715;51.010;6.812;2023-03-23T06:47:30;858.78;;;807.90;;
17197;SDS011;8715;51.010;6.812;2023-03-23T06:49:55;848.05;;;799.20;;
17197;SDS011;8715;51.010;6.812;2023-03-23T06:52:21;855.33;;;805.80;;
17197;SDS011;8715;51.010;6.812;2023-03-23T06:54:47;853.95;;;804.50;;
17197;SDS011;8715;51.010;6.812;2023-03-23T06:57:13;849.50;;;800.17;;
17197;SDS011;8715;51.010;6.812;2023-03-23T06:59:38;855.63;;;806.23;;
17197;SDS011;8715;51.010;6.812;2023-03-23T07:02:03;854.57;;;804.73;;
17197;SDS011;8715;51.010;6.812;2023-03-23T07:04:29;856.15;;;805.92;;
17197;SDS011;8715;51.010;6.812;2023-03-23T07:06:54;853.30;;;803.73;;
17197;SDS011;8715;51.010;6.812;2023-03-23T07:09:21;850.30;;;800.58;;
17197;SDS011;8715;51.010;6.812;2023-03-23T07:11:46;858.60;;;808.43;;
17197;SDS011;8715;51.010;6.812;2023-03-23T07:14:12;846.63;;;797.83;;
17197;SDS011;8715;51.010;6.812;2023-03-23T07:16:38;853.47;;;803.47;;
17197;SDS011;8715;51.010;6.812;2023-03-23T07:19:03;860.13;;;809.33;;
17197;SDS011;8715;51.010;6.812;2023-03-23T07:21:28;850.60;;;800.70;;
17197;SDS011;8715;51.010;6.812;2023-03-23T07:23:53;858.33;;;807.80;;
17197;SDS011;8715;51.010;6.812;2023-03-23T07:26:18;852.07;;;802.27;;
17197;SDS011;8715;51.010;6.812;2023-03-23T07:28:43;849.07;;;799.73;;
17197;SDS011;8715;51.010;6.812;2023-03-23T07:31:13;861.30;;;810.65;;
17197;SDS011;8715;51.010;6.812;2023-03-23T07:33:39;855.28;;;804.55;;
17197;SDS011;8715;51.010;6.812;2023-03-23T07:36:04;860.28;;;809.53;;
17197;SDS011;8715;51.010;6.812;2023-03-23T07:38:30;862.10;;;810.92;;
17197;SDS011;8715;51.010;6.812;2023-03-23T07:40:55;853.53;;;803.07;;
17197;SDS011;8715;51.010;6.812;2023-03-23T07:43:21;860.22;;;809.67;;
17197;SDS011;8715;51.010;6.812;2023-03-23T07:45:47;864.17;;;813.13;;
17197;SDS011;8715;51.010;6.812;2023-03-23T07:48:12;863.97;;;812.58;;
17197;SDS011;8715;51.010;6.812;2023-03-23T07:50:38;854.28;;;803.80;;
17197;SDS011;8715;51.010;6.812;2023-03-23T07:53:03;855.67;;;805.43;;
17197;SDS011;8715;51.010;6.812;2023-03-23T07:55:28;856.33;;;804.77;;
17197;SDS011;8715;51.010;6.812;2023-03-23T07:57:54;867.03;;;814.83;;
17197;SDS011;8715;51.010;6.812;2023-03-23T08:00:20;859.05;;;808.30;;
17197;SDS011;8715;51.010;6.812;2023-03-23T08:02:50;858.92;;;807.90;;
17197;SDS011;8715;51.010;6.812;2023-03-23T08:05:15;862.90;;;811.05;;
17197;SDS011;8715;51.010;6.812;2023-03-23T08:07:41;864.95;;;812.47;;
17197;SDS011;8715;51.010;6.812;2023-03-23T08:10:07;865.88;;;814.10;;
17197;SDS011;8715;51.010;6.812;2023-03-23T08:12:35;861.15;;;809.92;;
17197;SDS011;8715;51.010;6.812;2023-03-23T08:15:00;856.53;;;805.43;;
17197;SDS011;8715;51.010;6.812;2023-03-23T08:17:26;863.73;;;811.60;;
17197;SDS011;8715;51.010;6.812;2023-03-23T08:19:51;862.93;;;810.40;;
17197;SDS011;8715;51.010;6.812;2023-03-23T08:22:17;858.83;;;807.42;;
17197;SDS011;8715;51.010;6.812;2023-03-23T08:24:42;866.97;;;814.67;;
17197;SDS011;8715;51.010;6.812;2023-03-23T08:27:08;862.17;;;810.15;;
17197;SDS011;8715;51.010;6.812;2023-03-23T08:29:34;864.80;;;811.80;;
17197;SDS011;8715;51.010;6.812;2023-03-23T08:31:59;864.63;;;812.35;;
17197;SDS011;8715;51.010;6.812;2023-03-23T08:34:25;865.57;;;812.87;;
17197;SDS011;8715;51.010;6.812;2023-03-23T08:36:50;864.92;;;812.30;;
17197;SDS011;8715;51.010;6.812;2023-03-23T08:39:16;861.13;;;808.90;;
17197;SDS011;8715;51.010;6.812;2023-03-23T08:41:43;869.05;;;816.20;;
17197;SDS011;8715;51.010;6.812;2023-03-23T08:44:08;865.25;;;812.85;;
17197;SDS011;8715;51.010;6.812;2023-03-23T08:46:34;870.20;;;816.93;;
17197;SDS011;8715;51.010;6.812;2023-03-23T08:48:59;871.10;;;817.67;;
17197;SDS011;8715;51.010;6.812;2023-03-23T08:51:24;866.20;;;813.28;;
17197;SDS011;8715;51.010;6.812;2023-03-23T08:53:50;871.15;;;817.30;;
17197;SDS011;8715;51.010;6.812;2023-03-23T08:56:15;867.25;;;814.13;;
17197;SDS011;8715;51.010;6.812;2023-03-23T08:58:41;869.15;;;815.40;;
17197;SDS011;8715;51.010;6.812;2023-03-23T09:01:07;869.47;;;815.53;;
17197;SDS011;8715;51.010;6.812;2023-03-23T09:03:33;870.67;;;816.90;;
17197;SDS011;8715;51.010;6.812;2023-03-23T09:06:00;865.65;;;812.75;;
17197;SDS011;8715;51.010;6.812;2023-03-23T09:08:27;863.65;;;810.65;;
17197;SDS011;8715;51.010;6.812;2023-03-23T09:10:54;871.88;;;818.40;;
17197;SDS011;8715;51.010;6.812;2023-03-23T09:13:19;873.60;;;819.40;;
17197;SDS011;8715;51.010;6.812;2023-03-23T09:15:45;869.40;;;815.65;;
17197;SDS011;8715;51.010;6.812;2023-03-23T09:18:11;879.65;;;824.80;;
17197;SDS011;8715;51.010;6.812;2023-03-23T09:20:36;867.60;;;814.00;;
17197;SDS011;8715;51.010;6.812;2023-03-23T09:23:02;872.00;;;817.97;;
17197;SDS011;8715;51.010;6.812;2023-03-23T09:25:28;873.50;;;818.90;;
17197;SDS011;8715;51.010;6.812;2023-03-23T09:27:55;872.87;;;818.60;;
17197;SDS011;8715;51.010;6.812;2023-03-23T09:30:21;873.20;;;819.05;;
17197;SDS011;8715;51.010;6.812;2023-03-23T09:32:47;869.17;;;815.03;;
17197;SDS011;8715;51.010;6.812;2023-03-23T09:35:13;873.85;;;819.45;;
17197;SDS011;8715;51.010;6.812;2023-03-23T09:37:39;872.60;;;818.03;;
17197;SDS011;8715;51.010;6.812;2023-03-23T09:40:05;879.35;;;824.72;;
17197;SDS011;8715;51.010;6.812;2023-03-23T09:45:23;866.75;;;813.53;;
17197;SDS011;8715;51.010;6.812;2023-03-23T09:50:22;871.65;;;818.45;;
17197;SDS011;8715;51.010;6.812;2023-03-23T09:53:03;867.97;;;814.45;;
17197;SDS011;8715;51.010;6.812;2023-03-23T09:55:30;870.30;;;816.80;;
17197;SDS011;8715;51.010;6.812;2023-03-23T10:00:37;871.75;;;817.95;;
17197;SDS011;8715;51.010;6.812;2023-03-23T10:03:05;872.80;;;818.78;;
17197;SDS011;8715;51.010;6.812;2023-03-23T10:05:35;873.05;;;818.92;;
17197;SDS011;8715;51.010;6.812;2023-03-23T10:08:02;868.20;;;814.40;;
17197;SDS011;8715;51.010;6.812;2023-03-23T10:15:48;870.65;;;817.00;;
17197;SDS011;8715;51.010;6.812;2023-03-23T10:19:00;870.78;;;817.00;;
17197;SDS011;8715;51.010;6.812;2023-03-23T10:21:01;863.38;;;809.92;;
17197;SDS011;8715;51.010;6.812;2023-03-23T10:26:12;872.63;;;819.15;;
17197;SDS011;8715;51.010;6.812;2023-03-23T10:28:46;864.03;;;811.25;;
17197;SDS011;8715;51.010;6.812;2023-03-23T10:31:13;865.90;;;812.75;;
17197;SDS011;8715;51.010;6.812;2023-03-23T10:33:42;871.60;;;818.47;;
17197;SDS011;8715;51.010;6.812;2023-03-23T10:38:38;882.50;;;827.78;;
17197;SDS011;8715;51.010;6.812;2023-03-23T10:41:06;865.70;;;812.30;;
17197;SDS011;8715;51.010;6.812;2023-03-23T10:43:34;865.72;;;812.42;;
17197;SDS011;8715;51.010;6.812;2023-03-23T10:46:01;872.13;;;817.95;;
17197;SDS011;8715;51.010;6.812;2023-03-23T10:48:32;867.03;;;813.53;;
17197;SDS011;8715;51.010;6.812;2023-03-23T10:50:59;869.15;;;815.80;;
17197;SDS011;8715;51.010;6.812;2023-03-23T10:53:28;870.10;;;816.45;;
17197;SDS011;8715;51.010;6.812;2023-03-23T10:55:54;867.83;;;814.33;;
17197;SDS011;8715;51.010;6.812;2023-03-23T10:58:25;872.17;;;817.83;;
17197;SDS011;8715;51.010;6.812;2023-03-23T11:00:53;870.85;;;817.20;;
17197;SDS011;8715;51.010;6.812;2023-03-23T11:03:23;865.85;;;812.63;;
17197;SDS011;8715;51.010;6.812;2023-03-23T11:05:52;869.83;;;815.78;;
17197;SDS011;8715;51.010;6.812;2023-03-23T11:08:19;872.55;;;818.63;;
17197;SDS011;8715;51.010;6.812;2023-03-23T11:10:55;871.65;;;817.90;;
17197;SDS011;8715;51.010;6.812;2023-03-23T11:13:21;872.65;;;818.47;;
17197;SDS011;8715;51.010;6.812;2023-03-23T11:15:47;877.13;;;822.00;;
17197;SDS011;8715;51.010;6.812;2023-03-23T11:18:20;875.85;;;820.92;;
17197;SDS011;8715;51.010;6.812;2023-03-23T11:20:47;877.35;;;822.38;;
17197;SDS011;8715;51.010;6.812;2023-03-23T11:23:34;873.88;;;819.00;;
17197;SDS011;8715;51.010;6.812;2023-03-23T11:26:14;874.75;;;819.90;;
17197;SDS011;8715;51.010;6.812;2023-03-23T11:28:46;879.33;;;824.10;;
17197;SDS011;8715;51.010;6.812;2023-03-23T11:31:12;875.42;;;820.00;;
17197;SDS011;8715;51.010;6.812;2023-03-23T11:33:49;876.63;;;821.28;;
17197;SDS011;8715;51.010;6.812;2023-03-23T11:36:16;876.20;;;821.60;;
17197;SDS011;8715;51.010;6.812;2023-03-23T11:38:42;873.23;;;818.70;;
17197;SDS011;8715;51.010;6.812;2023-03-23T11:41:09;868.35;;;813.90;;
17197;SDS011;8715;51.010;6.812;2023-03-23T11:43:38;869.85;;;815.75;;
17197;SDS011;8715;51.010;6.812;2023-03-23T11:46:05;866.25;;;813.50;;
17197;SDS011;8715;51.010;6.812;2023-03-23T11:48:36;864.78;;;812.20;;
17197;SDS011;8715;51.010;6.812;2023-03-23T11:51:37;872.63;;;820.30;;
17197;SDS011;8715;51.010;6.812;2023-03-23T11:56:39;851.05;;;801.72;;
17197;SDS011;8715;51.010;6.812;2023-03-23T11:59:10;858.10;;;808.17;;
17197;SDS011;8715;51.010;6.812;2023-03-23T12:06:34;862.38;;;810.25;;
17197;SDS011;8715;51.010;6.812;2023-03-23T12:09:09;875.53;;;821.08;;
17197;SDS011;8715;51.010;6.812;2023-03-23T12:24:41;879.47;;;823.17;;
17197;SDS011;8715;51.010;6.812;2023-03-23T12:27:24;885.17;;;827.72;;
17197;SDS011;8715;51.010;6.812;2023-03-23T12:37:41;884.20;;;826.35;;
17197;SDS011;8715;51.010;6.812;2023-03-23T12:45:21;884.47;;;827.50;;
17197;SDS011;8715;51.010;6.812;2023-03-23T12:50:15;883.67;;;826.63;;
17197;SDS011;8715;51.010;6.812;2023-03-23T12:58:02;888.13;;;830.33;;
17197;SDS011;8715;51.010;6.812;2023-03-23T13:02:57;886.78;;;829.60;;
17197;SDS011;8715;51.010;6.812;2023-03-23T13:10:25;881.38;;;824.38;;
17197;SDS011;8715;51.010;6.812;2023-03-23T13:12:52;881.90;;;825.13;;
17197;SDS011;8715;51.010;6.812;2023-03-23T13:15:27;881.65;;;824.83;;
17197;SDS011;8715;51.010;6.812;2023-03-23T13:17:58;881.10;;;824.83;;
17197;SDS011;8715;51.010;6.812;2023-03-23T13:28:01;876.70;;;821.45;;
17197;SDS011;8715;51.010;6.812;2023-03-23T13:30:27;880.08;;;824.70;;
17197;SDS011;8715;51.010;6.812;2023-03-23T13:33:00;876.47;;;821.15;;
17197;SDS011;8715;51.010;6.812;2023-03-23T13:35:26;879.13;;;823.72;;
17197;SDS011;8715;51.010;6.812;2023-03-23T13:37:57;877.40;;;822.28;;
17197;SDS011;8715;51.010;6.812;2023-03-23T13:40:27;880.30;;;824.17;;
17197;SDS011;8715;51.010;6.812;2023-03-23T13:45:19;868.35;;;814.22;;
17197;SDS011;8715;51.010;6.812;2023-03-23T13:47:46;871.08;;;816.63;;
17197;SDS011;8715;51.010;6.812;2023-03-23T13:57:56;863.63;;;811.30;;
17197;SDS011;8715;51.010;6.812;2023-03-23T14:02:51;870.92;;;817.10;;
17197;SDS011;8715;51.010;6.812;2023-03-23T14:07:53;867.57;;;813.77;;
17197;SDS011;8715;51.010;6.812;2023-03-23T14:10:18;872.38;;;818.28;;
17197;SDS011;8715;51.010;6.812;2023-03-23T14:12:43;875.67;;;821.53;;
17197;SDS011;8715;51.010;6.812;2023-03-23T14:15:14;876.40;;;821.55;;
17197;SDS011;8715;51.010;6.812;2023-03-23T14:17:41;867.75;;;813.60;;
17197;SDS011;8715;51.010;6.812;2023-03-23T14:20:10;875.85;;;821.17;;
17197;SDS011;8715;51.010;6.812;2023-03-23T14:22:42;875.20;;;820.28;;
17197;SDS011;8715;51.010;6.812;2023-03-23T14:25:12;880.37;;;824.37;;
17197;SDS011;8715;51.010;6.812;2023-03-23T14:27:37;878.15;;;822.60;;
17197;SDS011;8715;51.010;6.812;2023-03-23T14:30:04;880.10;;;824.30;;
17197;SDS011;8715;51.010;6.812;2023-03-23T14:32:31;886.75;;;829.83;;
17197;SDS011;8715;51.010;6.812;2023-03-23T14:34:57;880.00;;;823.88;;
17197;SDS011;8715;51.010;6.812;2023-03-23T14:37:23;894.83;;;836.03;;
17197;SDS011;8715;51.010;6.812;2023-03-23T14:39:49;879.93;;;823.67;;
17197;SDS011;8715;51.010;6.812;2023-03-23T14:42:16;881.33;;;825.17;;
17197;SDS011;8715;51.010;6.812;2023-03-23T14:44:46;882.28;;;826.03;;
17197;SDS011;8715;51.010;6.812;2023-03-23T14:47:34;881.47;;;825.33;;
17197;SDS011;8715;51.010;6.812;2023-03-23T14:49:59;873.15;;;818.08;;
17197;SDS011;8715;51.010;6.812;2023-03-23T14:52:28;882.58;;;826.72;;
17197;SDS011;8715;51.010;6.812;2023-03-23T14:54:53;878.05;;;823.13;;
17197;SDS011;8715;51.010;6.812;2023-03-23T14:57:28;874.58;;;819.10;;
17197;SDS011;8715;51.010;6.812;2023-03-23T14:59:54;874.60;;;819.55;;
17197;SDS011;8715;51.010;6.812;2023-03-23T15:04:58;875.67;;;821.22;;
17197;SDS011;8715;51.010;6.812;2023-03-23T15:07:25;879.42;;;823.75;;
17197;SDS011;8715;51.010;6.812;2023-03-23T15:09:51;876.95;;;822.10;;
17197;SDS011;8715;51.010;6.812;2023-03-23T15:12:20;870.10;;;815.53;;
17197;SDS011;8715;51.010;6.812;2023-03-23T15:14:53;875.03;;;820.08;;
17197;SDS011;8715;51.010;6.812;2023-03-23T15:17:21;877.45;;;821.88;;
17197;SDS011;8715;51.010;6.812;2023-03-23T15:19:46;870.83;;;816.75;;
17197;SDS011;8715;51.010;6.812;2023-03-23T15:24:51;879.20;;;824.03;;
17197;SDS011;8715;51.010;6.812;2023-03-23T15:29:47;878.90;;;823.70;;
17197;SDS011;8715;51.010;6.812;2023-03-23T15:32:13;875.28;;;819.90;;
17197;SDS011;8715;51.010;6.812;2023-03-23T15:34:38;876.80;;;821.33;;
17197;SDS011;8715;51.010;6.812;2023-03-23T15:37:06;880.63;;;824.47;;
17197;SDS011;8715;51.010;6.812;2023-03-23T15:39:31;885.25;;;828.35;;
17197;SDS011;8715;51.010;6.812;2023-03-23T15:41:57;880.67;;;824.28;;
17197;SDS011;8715;51.010;6.812;2023-03-23T15:46:49;882.60;;;826.60;;
17197;SDS011;8715;51.010;6.812;2023-03-23T15:49:15;879.80;;;823.25;;
17197;SDS011;8715;51.010;6.812;2023-03-23T15:51:40;886.13;;;829.67;;
17197;SDS011;8715;51.010;6.812;2023-03-23T15:54:07;882.55;;;825.45;;
17197;SDS011;8715;51.010;6.812;2023-03-23T15:56:34;881.67;;;824.95;;
17197;SDS011;8715;51.010;6.812;2023-03-23T15:58:59;880.75;;;824.80;;
17197;SDS011;8715;51.010;6.812;2023-03-23T16:01:26;880.35;;;823.55;;
17197;SDS011;8715;51.010;6.812;2023-03-23T16:03:53;885.83;;;828.88;;
17197;SDS011;8715;51.010;6.812;2023-03-23T16:06:19;880.17;;;823.72;;
17197;SDS011;8715;51.010;6.812;2023-03-23T16:08:45;883.25;;;826.13;;
17197;SDS011;8715;51.010;6.812;2023-03-23T16:11:11;886.13;;;828.90;;
17197;SDS011;8715;51.010;6.812;2023-03-23T16:13:37;881.88;;;824.80;;
17197;SDS011;8715;51.010;6.812;2023-03-23T16:16:03;883.88;;;827.05;;